Skip Navigation Links
NOAA logo - Click to go to the NOAA homepage
NOAA's National Weather Service
Alaska Aviation Weather Unit
  NWS logo - Click to go to the NWS homepage
Left Navbar Graphic     10 AKDT = 18 GMT

   
NOAA is celebrating 200 years of science, service, and stewardship. Visit the NOAA 200th celebration Web site to learn more.
USA.gov is the U.S. Government's official Web portal to all Federal, state and local government Web resources and services.
Facebook
NWS on Facebook

Important Change Regarding the AAWU Web Presence

 

Over the last several months, the AAWU has been working to navigate its webpages to a nationally supported server. Security, as well as other needs, have necessitated the change.  We have been given an extension for the site changeover while we diligently work at addressing feedback received. As of July 14, 2017, aawu.arh.noaa.gov will be discontinued. The new AAWU web address is weather.gov/aawu. It is now live and will run in-parallel with the old site until it is discontinued on July 14, 2017. Please continue to send any feedback or questions regarding the new webpages to nws.ar.aawu.webauthors@noaa.gov.  Thank you for your patience during this time of transition.
AAWU Home :: Display TAF Add Bookmark
TAF PAEI 102000Z 1020/1202 28009KT 9999 SCT080 BKN200 QNH2960INS
      BECMG 1113/1114 28009KT 9999 VCSH SCT050 BKN100 QNH2956INS
      TEMPO 1122/1202 8000 -SHRA TX24/1100Z TN10/1112Z=
PAEI 261211Z AUTO 00000KT 1 3/8SM BR OVC046 05/05 A2985=

PAEI 261226Z AUTO 00000KT 2 3/4SM BR BKN046 OVC080 05/05 A2984=

PAEI 261241Z AUTO 00000KT 7SM FEW021 SCT046 OVC080 04/04 A2985=

METAR PAEI 261256Z AUTO 00000KT 10SM BKN011 BKN047 OVC080 05/04
     A2985=

PAEI 261326Z AUTO 00000KT 10SM FEW011 OVC018 05/05 A2985=

PAEI 261341Z AUTO 00000KT 10SM BKN011 OVC018 05/05 A2985=

METAR PAEI 261356Z AUTO 00000KT 10SM BKN011 OVC017 05/05 A2985=

PAEI 261422Z AUTO 00000KT 10SM OVC015 05/05 A2985=

METAR PAEI 261456Z AUTO 00000KT 10SM FEW012 OVC018 05/04 A2986=

PAEI 261511Z COR 00000KT 10SM FEW011 BKN018 BKN045 05/04 A2986=

PAEI 261511Z AUTO 00000KT 6SM M SCT018 OVC045 05/04 A2986=

PAEI 261526Z AUTO 00000KT 7SM FEW010 SCT018 BKN045 BKN100 05/04
A2986=

PAEI 261556Z COR AUTO 00000KT 10SM FEW018 BKN030 BKN045 05/05
     A2986=

PAEI 261641Z COR 00000KT 5SM BR FEW010 SCT030 BKN043 05/05 A2986=

PAEI 261641Z AUTO 00000KT 10SM FEW030 OVC043 05/05 A2986=

METAR PAEI 261656Z COR 33003KT 3SM BR FEW010 SCT030 BKN043 06/05
     A2986=

PAEI 261711Z COR 33004KT 4SM BR FEW010 SCT032 BKN043 06/05 A2986=

PAEI 261711Z AUTO 33004KT 10SM FEW002 SCT012 BKN032 OVC043 06/05
A2986=

PAEI 261726Z COR 35003KT 5SM BR FEW010 SCT012 BKN031 06/05 A2987=

PAEI 261726Z AUTO 35003KT 10SM FEW002 BKN012 OVC031 06/05 A2987=

METAR PAEI 261756Z COR 01005KT 5SM BR FEW010 SCT015 BKN036 07/05
     A2986=

PAEI 261806Z COR 01005KT 5SM BR FEW010 SCT016 BKN034 07/05 A2987=

PAEI 261806Z AUTO 01005KT 10SM FEW016 OVC034 07/05 A2987=


NOAA's National Weather Service
Alaska Aviation Weather Unit
6930 Sand Lake Road
Anchorage, AK 99502-1845
Disclaimer
Credits
Glossary
Privacy Policy
About Us
Career Opportunities
Contact AAWU Internet Services Site last modified: April, 17th 2012